createdAt,value
2019-01-24T00:02:12.764Z,31.97
2019-01-24T00:04:40.123Z,33.10
2019-01-24T00:07:07.330Z,30.83
2019-01-24T00:09:34.568Z,32.63
2019-01-24T00:12:01.800Z,32.63
2019-01-24T00:14:29.058Z,30.67
2019-01-24T00:16:56.346Z,30.90
2019-01-24T00:19:23.584Z,31.90
2019-01-24T00:21:50.893Z,31.50
2019-01-24T00:24:18.115Z,33.93
2019-01-24T00:26:45.330Z,32.43
2019-01-24T00:29:12.543Z,33.00
2019-01-24T00:31:39.819Z,33.60
2019-01-24T00:34:07.110Z,32.60
2019-01-24T00:36:34.348Z,31.50
2019-01-24T00:39:01.658Z,32.13
2019-01-24T00:41:28.864Z,32.50
2019-01-24T00:43:56.094Z,33.00
2019-01-24T00:46:23.332Z,33.57
2019-01-24T00:48:50.526Z,32.63
2019-01-24T00:51:18.005Z,34.80
2019-01-24T00:53:45.207Z,34.67
2019-01-24T00:56:12.449Z,35.33
2019-01-24T00:58:39.670Z,36.67
2019-01-24T01:01:07.000Z,35.87
2019-01-24T01:03:34.540Z,38.03
2019-01-24T01:06:02.018Z,39.83
2019-01-24T01:08:29.551Z,39.37
2019-01-24T01:10:57.160Z,38.60
2019-01-24T01:13:24.775Z,39.67
2019-01-24T01:15:52.567Z,38.80
2019-01-24T01:18:19.851Z,39.73
2019-01-24T01:20:47.074Z,38.73
2019-01-24T01:23:14.291Z,39.13
2019-01-24T01:25:41.591Z,39.57
2019-01-24T01:28:08.951Z,40.57
2019-01-24T01:30:36.170Z,40.50
2019-01-24T01:33:04.255Z,40.17
2019-01-24T01:35:31.457Z,38.73
2019-01-24T01:37:58.996Z,40.80
2019-01-24T01:40:26.223Z,41.13
2019-01-24T01:42:55.746Z,38.90
2019-01-24T01:45:22.962Z,42.20
2019-01-24T01:47:50.183Z,40.20
2019-01-24T01:50:18.793Z,41.53
2019-01-24T01:52:46.092Z,40.73
2019-01-24T01:55:13.302Z,40.53
2019-01-24T01:57:40.522Z,40.97
2019-01-24T02:00:09.679Z,41.97
2019-01-24T02:02:36.885Z,40.63
2019-01-24T02:05:04.637Z,41.17
2019-01-24T02:07:31.772Z,43.20
2019-01-24T02:09:58.970Z,39.33
2019-01-24T02:12:26.198Z,43.33
2019-01-24T02:14:53.395Z,41.87
2019-01-24T02:17:20.615Z,41.40
2019-01-24T02:19:47.834Z,41.07
2019-01-24T02:22:15.068Z,42.93
2019-01-24T02:24:42.279Z,43.97
2019-01-24T02:27:09.524Z,42.10
2019-01-24T02:29:36.754Z,42.20
2019-01-24T02:32:04.116Z,42.30
2019-01-24T02:34:31.359Z,41.60
2019-01-24T02:36:58.587Z,40.80
2019-01-24T02:39:25.840Z,43.83
2019-01-24T02:41:53.092Z,41.37
2019-01-24T02:44:20.315Z,42.33
2019-01-24T02:46:47.559Z,44.23
2019-01-24T02:49:14.805Z,41.83
2019-01-24T02:51:42.187Z,42.37
2019-01-24T02:54:09.415Z,44.77
2019-01-24T02:56:36.683Z,41.63
2019-01-24T02:59:03.907Z,40.23
2019-01-24T03:01:31.144Z,43.03
2019-01-24T03:03:58.408Z,44.40
2019-01-24T03:06:25.640Z,42.87
2019-01-24T03:08:52.874Z,43.87
2019-01-24T03:11:20.126Z,43.40
2019-01-24T03:13:47.393Z,42.40
2019-01-24T03:16:14.732Z,43.77
2019-01-24T03:18:41.952Z,41.17
2019-01-24T03:21:09.393Z,42.03
2019-01-24T03:23:36.737Z,41.17
2019-01-24T03:26:04.016Z,41.23
2019-01-24T03:28:31.263Z,43.60
2019-01-24T03:30:58.512Z,44.27
2019-01-24T03:33:25.742Z,44.47
2019-01-24T03:35:52.964Z,42.27
2019-01-24T03:38:20.210Z,43.07
2019-01-24T03:40:47.428Z,43.80
2019-01-24T03:43:14.700Z,42.93
2019-01-24T03:45:41.958Z,42.57
2019-01-24T03:48:09.612Z,41.67
2019-01-24T03:50:36.852Z,41.83
2019-01-24T03:53:04.414Z,41.93
2019-01-24T03:55:31.652Z,42.63
2019-01-24T03:57:58.879Z,42.30
2019-01-24T04:00:26.135Z,41.30
2019-01-24T04:02:53.386Z,43.00
2019-01-24T04:05:20.695Z,43.97
2019-01-24T04:07:47.951Z,44.03
2019-01-24T04:10:16.482Z,43.67
2019-01-24T04:12:43.925Z,43.30
2019-01-24T04:15:13.780Z,45.87
2019-01-24T04:17:41.013Z,47.10
2019-01-24T04:20:08.352Z,44.27
2019-01-24T04:22:35.695Z,47.70
2019-01-24T04:25:03.512Z,46.70
2019-01-24T04:27:30.734Z,48.90
2019-01-24T04:29:57.943Z,47.27
2019-01-24T04:32:44.651Z,46.07
2019-01-24T04:35:19.411Z,46.27
2019-01-24T04:37:41.052Z,48.23
2019-01-24T04:40:09.443Z,47.20
2019-01-24T04:42:36.674Z,47.23
2019-01-24T04:45:04.211Z,48.97
2019-01-24T04:47:31.407Z,47.87
2019-01-24T04:49:58.675Z,47.07
2019-01-24T04:52:25.862Z,47.53
2019-01-24T04:54:53.079Z,47.50
2019-01-24T04:57:20.274Z,47.97
2019-01-24T04:59:47.454Z,48.53
2019-01-24T05:02:14.667Z,50.63
2019-01-24T05:04:41.880Z,49.10
2019-01-24T05:07:09.365Z,46.47
2019-01-24T05:09:36.551Z,48.77
2019-01-24T05:12:05.048Z,51.27
2019-01-24T05:14:32.480Z,51.43
2019-01-24T05:16:59.777Z,52.13
2019-01-24T05:19:27.026Z,51.80
2019-01-24T05:21:54.256Z,51.10
2019-01-24T05:24:21.490Z,51.37
2019-01-24T05:26:48.735Z,48.47
2019-01-24T05:29:15.930Z,49.50
2019-01-24T05:31:43.203Z,47.97
2019-01-24T05:34:10.414Z,52.70
2019-01-24T05:36:37.629Z,50.53
2019-01-24T05:39:06.506Z,50.37
2019-01-24T05:41:33.727Z,52.27
2019-01-24T05:44:01.014Z,51.47
2019-01-24T05:46:28.298Z,50.57
2019-01-24T05:48:55.491Z,50.70
2019-01-24T05:51:22.713Z,49.90
2019-01-24T05:53:49.968Z,50.93
2019-01-24T05:56:17.338Z,50.57
2019-01-24T05:58:44.567Z,51.53
2019-01-24T06:01:12.683Z,49.60
2019-01-24T06:03:39.883Z,50.50
2019-01-24T06:06:07.103Z,49.90
2019-01-24T06:08:34.318Z,50.77
2019-01-24T06:11:01.516Z,50.83
2019-01-24T06:13:28.732Z,49.53
2019-01-24T06:15:55.942Z,50.77
2019-01-24T06:18:23.420Z,50.63
2019-01-24T06:20:50.647Z,49.73
2019-01-24T06:23:17.848Z,50.37
2019-01-24T06:25:45.102Z,49.63
2019-01-24T06:28:12.413Z,50.40
2019-01-24T06:30:39.629Z,49.30
2019-01-24T06:33:06.838Z,50.53
2019-01-24T06:35:34.062Z,49.27
2019-01-24T06:38:01.285Z,49.47
2019-01-24T06:40:28.479Z,51.37
2019-01-24T06:42:55.875Z,48.33
2019-01-24T06:45:23.146Z,50.67
2019-01-24T06:47:50.390Z,50.60
2019-01-24T06:50:17.723Z,49.33
2019-01-24T06:52:44.923Z,47.30
2019-01-24T06:55:13.699Z,48.70
2019-01-24T06:57:40.913Z,49.73
2019-01-24T07:00:09.753Z,49.50
2019-01-24T07:02:36.980Z,48.97
2019-01-24T07:05:04.291Z,47.40
2019-01-24T07:07:31.507Z,47.30
2019-01-24T07:09:58.707Z,46.20
2019-01-24T07:12:26.180Z,47.50
2019-01-24T07:14:53.377Z,46.73
2019-01-24T07:17:20.648Z,46.70
2019-01-24T07:19:47.870Z,47.73
2019-01-24T07:22:15.069Z,49.77
2019-01-24T07:24:42.283Z,47.63
2019-01-24T07:27:09.504Z,46.90
2019-01-24T07:29:36.703Z,48.37
2019-01-24T07:32:04.027Z,46.40
2019-01-24T07:34:31.266Z,52.50
2019-01-24T07:36:59.598Z,48.23
2019-01-24T07:39:27.152Z,47.10
2019-01-24T07:41:54.456Z,58.63
2019-01-24T07:44:21.846Z,59.60
2019-01-24T07:46:49.589Z,48.27
2019-01-24T07:49:16.807Z,49.80
2019-01-24T07:51:44.325Z,49.93
2019-01-24T07:54:11.546Z,50.20
2019-01-24T07:56:38.756Z,50.90
2019-01-24T07:59:05.997Z,50.43
2019-01-24T08:01:33.220Z,51.37
2019-01-24T08:04:00.439Z,50.90
2019-01-24T08:06:28.344Z,49.83
2019-01-24T08:08:55.607Z,48.33
2019-01-24T08:11:22.814Z,48.10
2019-01-24T08:13:50.192Z,51.10
2019-01-24T08:16:17.767Z,50.13
2019-01-24T08:18:45.123Z,51.97
2019-01-24T08:21:12.363Z,51.87
2019-01-24T08:23:39.621Z,50.47
2019-01-24T08:26:06.895Z,49.50
2019-01-24T08:28:34.148Z,52.00
2019-01-24T08:31:01.506Z,53.40
2019-01-24T08:33:29.052Z,50.53
2019-01-24T08:35:56.332Z,50.63
2019-01-24T08:38:23.687Z,51.03
2019-01-24T08:40:51.055Z,51.20
2019-01-24T08:43:18.406Z,49.77
2019-01-24T08:45:45.647Z,49.00
2019-01-24T08:48:13.168Z,48.23
2019-01-24T08:50:40.492Z,48.77
2019-01-24T08:53:07.732Z,49.20
2019-01-24T08:55:38.031Z,48.67
2019-01-24T08:58:05.998Z,51.77
2019-01-24T09:00:33.244Z,52.50
2019-01-24T09:03:00.640Z,50.80
2019-01-24T09:05:28.006Z,51.97
2019-01-24T09:07:55.517Z,48.63
2019-01-24T09:10:25.383Z,50.33
2019-01-24T09:12:52.772Z,50.40
2019-01-24T09:15:20.111Z,53.47
2019-01-24T09:17:47.443Z,49.10
2019-01-24T09:20:15.364Z,49.97
2019-01-24T09:22:42.961Z,50.67
2019-01-24T09:25:10.454Z,49.53
2019-01-24T09:27:37.799Z,48.90
2019-01-24T09:30:07.741Z,50.20
2019-01-24T09:32:35.013Z,47.53
2019-01-24T09:35:02.781Z,48.63
2019-01-24T09:37:30.038Z,48.70
2019-01-24T09:39:57.311Z,48.20
2019-01-24T09:42:24.627Z,50.40
2019-01-24T09:44:51.914Z,49.33
2019-01-24T09:47:19.227Z,49.37
2019-01-24T09:49:46.493Z,49.70
2019-01-24T09:52:13.709Z,50.63
2019-01-24T09:54:40.967Z,49.53
2019-01-24T09:57:08.216Z,47.47
2019-01-24T09:59:35.461Z,47.30
2019-01-24T10:02:02.793Z,50.50
2019-01-24T10:04:30.114Z,49.33
2019-01-24T10:06:57.376Z,48.50
2019-01-24T10:09:24.863Z,47.53
2019-01-24T10:11:52.114Z,44.13
2019-01-24T10:14:19.538Z,41.13
2019-01-24T10:16:46.882Z,44.67
2019-01-24T10:19:14.304Z,44.80
2019-01-24T10:21:41.656Z,43.80
2019-01-24T10:24:08.978Z,45.20
2019-01-24T10:26:36.298Z,45.57
2019-01-24T10:29:03.777Z,49.17
2019-01-24T10:31:31.119Z,45.87
2019-01-24T10:33:58.381Z,47.33
2019-01-24T10:36:25.621Z,46.57
2019-01-24T10:38:52.929Z,45.67
2019-01-24T10:41:20.323Z,45.30
2019-01-24T10:43:48.894Z,45.93
2019-01-24T10:46:16.231Z,46.73
2019-01-24T10:48:43.490Z,45.73
2019-01-24T10:51:10.841Z,47.07
2019-01-24T10:53:38.195Z,45.43
2019-01-24T10:56:05.460Z,44.37
2019-01-24T10:58:32.715Z,45.13
2019-01-24T11:01:00.065Z,46.60
2019-01-24T11:03:27.683Z,43.33
2019-01-24T11:05:54.947Z,45.63
2019-01-24T11:08:22.176Z,45.97
2019-01-24T11:10:49.615Z,44.20
2019-01-24T11:13:16.908Z,47.37
2019-01-24T11:15:44.148Z,44.40
2019-01-24T11:18:11.897Z,42.20
2019-01-24T11:20:39.275Z,45.87
2019-01-24T11:23:06.645Z,44.40
2019-01-24T11:25:34.025Z,45.83
2019-01-24T11:28:01.276Z,44.83
2019-01-24T11:30:28.723Z,46.23
2019-01-24T11:32:56.875Z,45.73
2019-01-24T11:35:27.075Z,43.53
2019-01-24T11:37:54.704Z,42.33
2019-01-24T11:40:21.971Z,45.43
2019-01-24T11:42:49.210Z,50.67
2019-01-24T11:45:17.533Z,47.27
2019-01-24T11:47:44.784Z,47.60
2019-01-24T11:50:14.090Z,43.23
2019-01-24T11:52:41.320Z,43.90
2019-01-24T11:55:09.437Z,42.63
2019-01-24T11:57:36.762Z,43.60
2019-01-24T12:00:08.742Z,43.17
2019-01-24T12:02:39.634Z,45.77
2019-01-24T12:05:05.676Z,44.87
2019-01-24T12:07:33.015Z,44.80
2019-01-24T12:10:00.317Z,43.77
2019-01-24T12:12:27.627Z,42.63
2019-01-24T12:14:54.983Z,45.63
2019-01-24T12:17:22.219Z,46.30
2019-01-24T12:19:49.660Z,43.47
2019-01-24T12:22:17.165Z,44.10
2019-01-24T12:24:44.532Z,42.50
2019-01-24T12:27:12.911Z,45.20
2019-01-24T12:29:40.159Z,42.80
2019-01-24T12:32:07.549Z,43.17
2019-01-24T12:34:35.379Z,44.17
2019-01-24T12:37:02.630Z,42.63
2019-01-24T12:39:29.879Z,44.07
2019-01-24T12:41:57.740Z,42.73
2019-01-24T12:44:25.069Z,44.13
2019-01-24T12:46:52.316Z,44.57
2019-01-24T12:49:19.625Z,43.40
2019-01-24T12:51:47.006Z,47.20
2019-01-24T12:54:14.328Z,46.47
2019-01-24T12:56:41.735Z,44.37
2019-01-24T12:59:09.162Z,42.90
2019-01-24T13:01:36.623Z,43.13
2019-01-24T13:04:03.895Z,44.03
2019-01-24T13:06:31.116Z,42.73
2019-01-24T13:08:58.378Z,46.63
2019-01-24T13:11:25.606Z,46.23
2019-01-24T13:13:52.851Z,47.10
2019-01-24T13:16:20.098Z,46.47
2019-01-24T13:18:47.336Z,44.23
2019-01-24T13:21:14.551Z,46.23
2019-01-24T13:23:41.822Z,43.10
2019-01-24T13:26:09.082Z,44.13
2019-01-24T13:28:36.349Z,44.33
2019-01-24T13:31:03.610Z,44.57
2019-01-24T13:33:30.989Z,45.63
2019-01-24T13:35:59.148Z,42.47
2019-01-24T13:38:26.627Z,43.57
2019-01-24T13:40:53.888Z,43.30
2019-01-24T13:43:21.339Z,43.70
2019-01-24T13:45:48.670Z,41.77
2019-01-24T13:48:16.004Z,42.77
2019-01-24T13:50:43.423Z,41.43
2019-01-24T13:53:10.659Z,43.53
2019-01-24T13:55:39.416Z,46.13
2019-01-24T13:58:07.180Z,43.43
2019-01-24T14:00:36.753Z,44.63
2019-01-24T14:03:10.377Z,48.30
2019-01-24T14:05:37.667Z,44.40
2019-01-24T14:08:04.917Z,42.13
2019-01-24T14:10:32.375Z,43.57
2019-01-24T14:12:59.660Z,39.13
2019-01-24T14:15:26.899Z,32.10
2019-01-24T14:17:54.132Z,33.37
2019-01-24T14:20:21.400Z,33.20
2019-01-24T14:22:48.643Z,34.37
2019-01-24T14:25:16.923Z,33.87
2019-01-24T14:27:44.537Z,32.33
2019-01-24T14:30:15.266Z,34.93
2019-01-24T14:32:42.516Z,37.33
2019-01-24T14:35:09.732Z,33.13
2019-01-24T14:37:39.924Z,34.57
2019-01-24T14:40:06.722Z,35.73
2019-01-24T14:42:33.989Z,35.03
2019-01-24T14:45:01.227Z,35.57
2019-01-24T14:47:28.721Z,35.77
2019-01-24T14:49:55.956Z,36.20
2019-01-24T14:52:23.255Z,37.67
2019-01-24T14:54:50.498Z,36.23
2019-01-24T14:57:18.288Z,36.37
2019-01-24T14:59:45.562Z,35.50
2019-01-24T15:02:12.767Z,36.60
2019-01-24T15:04:39.990Z,35.63
2019-01-24T15:07:07.194Z,35.77
2019-01-24T15:09:34.394Z,32.07
2019-01-24T15:12:01.688Z,36.77
2019-01-24T15:14:28.919Z,33.37
2019-01-24T15:16:56.175Z,34.10
2019-01-24T15:19:23.393Z,35.60
2019-01-24T15:21:50.603Z,33.60
2019-01-24T15:24:17.844Z,35.37
2019-01-24T15:26:45.048Z,35.77
2019-01-24T15:29:12.272Z,37.80
2019-01-24T15:31:39.512Z,33.73
2019-01-24T15:34:06.783Z,35.53
2019-01-24T15:36:33.999Z,35.57
2019-01-24T15:39:01.255Z,33.93
2019-01-24T15:41:28.515Z,34.07
2019-01-24T15:43:55.716Z,35.70
2019-01-24T15:46:23.111Z,35.33
2019-01-24T15:48:50.377Z,34.80
2019-01-24T15:51:17.623Z,35.03
2019-01-24T15:53:44.838Z,36.77
2019-01-24T15:56:12.131Z,36.40
2019-01-24T15:58:39.524Z,35.43
2019-01-24T16:01:06.799Z,36.13
2019-01-24T16:03:34.511Z,37.17
2019-01-24T16:06:01.756Z,37.20
2019-01-24T16:08:29.099Z,38.27
2019-01-24T16:10:56.705Z,36.90
2019-01-24T16:13:24.073Z,36.37
2019-01-24T16:15:51.439Z,37.20
2019-01-24T16:18:18.757Z,40.80
2019-01-24T16:20:46.257Z,37.93
2019-01-24T16:23:13.584Z,41.70
2019-01-24T16:25:40.815Z,38.03
2019-01-24T16:28:08.160Z,41.80
2019-01-24T16:30:36.777Z,40.90
2019-01-24T16:33:06.304Z,41.07
2019-01-24T16:35:34.328Z,37.00
2019-01-24T16:38:08.903Z,41.67
2019-01-24T16:40:31.066Z,42.80
2019-01-24T16:42:58.787Z,41.23
2019-01-24T16:45:27.480Z,37.67
2019-01-24T16:47:54.734Z,37.20
2019-01-24T16:50:23.010Z,37.07
2019-01-24T16:52:50.756Z,36.27
2019-01-24T16:55:18.357Z,39.93
2019-01-24T16:57:45.984Z,37.60
2019-01-24T17:00:19.211Z,39.30
2019-01-24T17:02:46.486Z,37.33
2019-01-24T17:05:14.400Z,31.07
2019-01-24T17:07:42.871Z,34.90
2019-01-24T17:10:12.464Z,34.53
2019-01-24T17:12:39.893Z,36.23
2019-01-24T17:15:11.596Z,38.10
2019-01-24T17:17:38.963Z,35.57
2019-01-24T17:20:14.178Z,33.77
2019-01-24T17:22:41.609Z,34.00
2019-01-24T17:25:09.756Z,32.10
2019-01-24T17:27:37.097Z,35.53
2019-01-24T17:30:06.735Z,31.77
2019-01-24T17:32:34.167Z,32.67
2019-01-24T17:35:01.461Z,30.77
2019-01-24T17:37:28.744Z,32.47
2019-01-24T17:39:56.157Z,30.10
2019-01-24T17:42:23.540Z,34.27
2019-01-24T17:44:50.796Z,30.67
2019-01-24T17:47:18.149Z,30.60
2019-01-24T17:49:45.420Z,43.87
2019-01-24T17:52:13.087Z,37.60
2019-01-24T17:54:40.933Z,40.30
2019-01-24T17:57:08.211Z,37.77
2019-01-24T17:59:35.512Z,34.17
2019-01-24T18:02:05.177Z,36.27
2019-01-24T18:04:32.531Z,33.47
2019-01-24T18:07:00.619Z,31.17
2019-01-24T18:09:27.984Z,31.07
2019-01-24T18:11:55.252Z,30.53
2019-01-24T18:14:22.639Z,31.70
2019-01-24T18:16:49.992Z,32.27
2019-01-24T18:19:17.264Z,36.03
2019-01-24T18:21:44.577Z,34.93
2019-01-24T18:24:12.002Z,54.77
2019-01-24T18:26:39.276Z,37.90
2019-01-24T18:29:06.577Z,33.90
2019-01-24T18:31:34.026Z,33.67
2019-01-24T18:34:01.376Z,33.37
2019-01-24T18:36:28.646Z,41.43
2019-01-24T18:38:56.067Z,38.10
2019-01-24T18:41:23.312Z,35.17
2019-01-24T18:43:50.579Z,39.17
2019-01-24T18:46:17.879Z,36.10
2019-01-24T18:48:45.163Z,35.27
2019-01-24T18:51:12.471Z,36.43
2019-01-24T18:53:39.776Z,34.07
2019-01-24T18:56:07.137Z,37.03
2019-01-24T18:58:35.077Z,33.47
2019-01-24T19:01:03.165Z,34.67
2019-01-24T19:03:30.457Z,34.33
2019-01-24T19:05:58.182Z,34.50
2019-01-24T19:08:25.650Z,36.77
2019-01-24T19:10:53.058Z,34.80
2019-01-24T19:13:20.332Z,35.87
2019-01-24T19:15:48.804Z,35.67
2019-01-24T19:18:17.868Z,37.50
2019-01-24T19:20:45.226Z,34.90
2019-01-24T19:23:12.654Z,36.00
2019-01-24T19:25:40.188Z,35.30
2019-01-24T19:28:09.972Z,37.77
2019-01-24T19:30:37.270Z,36.13
2019-01-24T19:33:04.645Z,40.40
2019-01-24T19:35:33.082Z,38.83
2019-01-24T19:38:00.744Z,37.03
2019-01-24T19:40:28.172Z,35.13
2019-01-24T19:42:55.653Z,36.43
2019-01-24T19:45:23.805Z,38.07
2019-01-24T19:47:51.072Z,38.20
2019-01-24T19:50:20.731Z,37.50
2019-01-24T19:52:48.457Z,37.70
2019-01-24T19:55:15.867Z,37.77
2019-01-24T19:57:43.389Z,40.13
2019-01-24T20:00:15.986Z,40.70
2019-01-24T20:02:43.407Z,39.57
2019-01-24T20:05:11.607Z,38.53
2019-01-24T20:07:38.964Z,40.23
2019-01-24T20:10:09.211Z,38.97
2019-01-24T20:12:36.608Z,38.33
2019-01-24T20:15:06.518Z,37.77
2019-01-24T20:17:34.040Z,40.70
2019-01-24T20:20:01.848Z,39.67
2019-01-24T20:22:29.896Z,37.70
2019-01-24T20:24:57.238Z,40.77
2019-01-24T20:27:24.586Z,43.00
2019-01-24T20:29:51.825Z,43.03
2019-01-24T20:32:19.078Z,39.40
2019-01-24T20:34:47.496Z,41.33
2019-01-24T20:37:14.722Z,42.20
2019-01-24T20:39:41.976Z,43.13
2019-01-24T20:42:09.400Z,46.00
2019-01-24T20:44:36.769Z,44.50
2019-01-24T20:47:04.246Z,40.47
2019-01-24T20:49:31.481Z,41.90
2019-01-24T20:51:58.706Z,44.13
2019-01-24T20:54:25.955Z,48.67
2019-01-24T20:56:53.525Z,47.50
2019-01-24T20:59:20.768Z,43.60
2019-01-24T21:01:48.053Z,42.43
2019-01-24T21:04:15.458Z,41.03
2019-01-24T21:06:43.129Z,43.70
2019-01-24T21:09:14.699Z,41.00
2019-01-24T21:11:39.662Z,39.03
2019-01-24T21:14:07.080Z,39.70
2019-01-24T21:16:36.599Z,43.47
2019-01-24T21:19:04.354Z,44.23
2019-01-24T21:21:31.640Z,45.13
2019-01-24T21:23:59.688Z,47.13
2019-01-24T21:26:27.544Z,47.87
2019-01-24T21:28:55.027Z,45.93
2019-01-24T21:31:22.279Z,43.83
2019-01-24T21:33:49.507Z,42.60
2019-01-24T21:36:16.817Z,46.30
2019-01-24T21:38:44.155Z,42.23
2019-01-24T21:41:11.400Z,41.67
2019-01-24T21:43:38.968Z,39.87
2019-01-24T21:46:06.446Z,40.87
2019-01-24T21:48:33.686Z,41.30
2019-01-24T21:51:00.918Z,41.83
2019-01-24T21:53:28.150Z,42.17
2019-01-24T21:55:55.415Z,44.43
2019-01-24T21:58:22.833Z,43.23
2019-01-24T22:00:50.257Z,43.27
2019-01-24T22:03:17.596Z,42.60
2019-01-24T22:05:44.879Z,44.57
2019-01-24T22:08:12.240Z,44.23
2019-01-24T22:10:39.465Z,43.20
2019-01-24T22:13:06.712Z,43.67
2019-01-24T22:15:33.973Z,43.63
2019-01-24T22:18:01.222Z,44.30
2019-01-24T22:20:28.764Z,42.13
2019-01-24T22:22:56.135Z,45.33
2019-01-24T22:25:25.651Z,44.73
2019-01-24T22:27:52.899Z,43.13
2019-01-24T22:30:27.907Z,42.77
2019-01-24T22:32:55.168Z,41.30
2019-01-24T22:35:22.452Z,44.07
2019-01-24T22:37:49.674Z,44.77
2019-01-24T22:40:17.027Z,44.17
2019-01-24T22:42:44.612Z,42.73
2019-01-24T22:45:15.917Z,47.07
2019-01-24T22:47:43.279Z,46.17
2019-01-24T22:50:11.905Z,45.70
2019-01-24T22:52:39.431Z,46.10
2019-01-24T22:55:07.712Z,46.90
2019-01-24T22:57:35.103Z,51.73
2019-01-24T23:00:04.332Z,48.47
2019-01-24T23:02:31.584Z,48.70
2019-01-24T23:04:58.890Z,49.27
2019-01-24T23:07:26.302Z,44.67
2019-01-24T23:09:53.635Z,45.20
2019-01-24T23:12:21.079Z,45.20
2019-01-24T23:14:48.342Z,44.23
2019-01-24T23:17:15.571Z,47.53
2019-01-24T23:19:42.823Z,42.30
2019-01-24T23:22:10.087Z,44.43
2019-01-24T23:24:37.315Z,45.90
2019-01-24T23:27:04.630Z,45.60
2019-01-24T23:29:31.867Z,45.03
2019-01-24T23:31:59.109Z,47.07
2019-01-24T23:34:26.335Z,42.40
2019-01-24T23:36:53.566Z,45.13
2019-01-24T23:39:20.939Z,45.77
2019-01-24T23:41:48.279Z,46.53
2019-01-24T23:44:15.551Z,47.67
2019-01-24T23:46:42.803Z,44.77
2019-01-24T23:49:10.053Z,42.77
2019-01-24T23:51:37.427Z,43.67
2019-01-24T23:54:04.672Z,44.77
2019-01-24T23:56:32.038Z,43.30
2019-01-24T23:58:59.312Z,41.80
